Time;durP1;ratioP1;P1;durP2;ratioP2;P2;SDS_P1;SDS_P2;PMS_P1;PMS_P2;Temp;Humidity;BMP_temperature;BMP_pressure;BME280_temperature;BME280_humidity;BME280_pressure;Samples;Min_cycle;Max_cycle;Signal;HPM_P1;HPM_P2
2022/08/16 00:00:21;;;;;;;15.10;6.88;;;;;;;;;;5114411;28;20378;-80
2022/08/16 00:02:47;;;;;;;13.18;7.32;;;;;;;;;;5114756;28;20023;-80
2022/08/16 00:05:14;;;;;;;15.27;8.32;;;;;;;;;;5095865;28;20431;-80
2022/08/16 00:07:41;;;;;;;14.23;7.72;;;;;;;;;;5114235;28;20015;-80
2022/08/16 00:10:09;;;;;;;13.82;8.15;;;;;;;;;;5114564;28;20020;-80
2022/08/16 00:12:35;;;;;;;13.43;8.50;;;;;;;;;;5114305;28;20080;-80
2022/08/16 00:15:04;;;;;;;12.20;8.70;;;;;;;;;;5095865;28;20030;-80
2022/08/16 00:17:30;;;;;;;12.60;8.32;;;;;;;;;;5114398;28;20416;-80
2022/08/16 00:19:56;;;;;;;12.77;8.20;;;;;;;;;;5114085;28;20019;-80
2022/08/16 00:22:23;;;;;;;21.13;9.25;;;;;;;;;;5114340;28;20028;-80
2022/08/16 00:24:49;;;;;;;14.23;8.40;;;;;;;;;;5113557;28;20763;-79
2022/08/16 00:27:15;;;;;;;16.75;8.25;;;;;;;;;;5113051;28;20023;-79
2022/08/16 00:29:41;;;;;;;10.77;8.40;;;;;;;;;;5113375;28;20395;-79
2022/08/16 00:32:08;;;;;;;11.27;8.20;;;;;;;;;;5113050;28;20089;-79
2022/08/16 00:34:35;;;;;;;14.45;8.75;;;;;;;;;;5113198;28;20059;-79
2022/08/16 00:37:02;;;;;;;13.13;8.38;;;;;;;;;;5094802;28;20023;-79
2022/08/16 00:39:28;;;;;;;11.05;8.57;;;;;;;;;;5113323;28;20369;-79
2022/08/16 00:41:54;;;;;;;11.27;8.60;;;;;;;;;;5112989;28;20373;-79
2022/08/16 00:44:20;;;;;;;12.00;8.43;;;;;;;;;;5112970;28;20027;-79
2022/08/16 00:47:00;;;;;;;12.43;8.07;;;;;;;;;;5112999;28;20012;-79
2022/08/16 00:49:26;;;;;;;11.40;8.60;;;;;;;;;;5113433;28;20019;-79
2022/08/16 00:51:53;;;;;;;14.60;8.05;;;;;;;;;;5094653;28;20076;-79
2022/08/16 00:54:20;;;;;;;12.75;8.35;;;;;;;;;;5113076;28;20381;-79
2022/08/16 00:56:48;;;;;;;12.25;8.73;;;;;;;;;;5092426;28;20040;-79
2022/08/16 00:59:15;;;;;;;16.27;9.88;;;;;;;;;;5092442;28;20030;-79
2022/08/16 01:01:43;;;;;;;14.15;8.60;;;;;;;;;;5092318;28;20115;-79
2022/08/16 01:04:10;;;;;;;14.90;8.63;;;;;;;;;;5092080;28;20027;-79
2022/08/16 01:06:36;;;;;;;18.00;9.07;;;;;;;;;;5098631;28;20421;-79
2022/08/16 01:09:05;;;;;;;12.27;8.55;;;;;;;;;;5099233;28;20020;-79
2022/08/16 01:11:32;;;;;;;11.60;8.75;;;;;;;;;;5099334;28;20024;-79
2022/08/16 01:14:02;;;;;;;13.88;8.57;;;;;;;;;;5098966;28;20036;-79
2022/08/16 01:16:28;;;;;;;13.50;9.13;;;;;;;;;;5098798;28;20023;-79
2022/08/16 01:18:58;;;;;;;14.70;10.13;;;;;;;;;;5098814;28;20413;-79
2022/08/16 01:21:34;;;;;;;20.15;9.23;;;;;;;;;;5098628;28;20426;-79
2022/08/16 01:24:19;;;;;;;11.52;8.32;;;;;;;;;;5098706;28;20436;-79
2022/08/16 01:26:46;;;;;;;10.23;8.30;;;;;;;;;;5098721;28;20527;-79
2022/08/16 01:29:14;;;;;;;17.58;9.10;;;;;;;;;;5098796;28;20024;-79
2022/08/16 01:31:40;;;;;;;13.57;8.93;;;;;;;;;;5098929;28;20078;-79
2022/08/16 01:34:06;;;;;;;14.75;8.75;;;;;;;;;;5098709;28;20024;-79
2022/08/16 01:36:33;;;;;;;12.65;8.48;;;;;;;;;;5080383;28;20447;-79
2022/08/16 01:38:59;;;;;;;13.48;8.15;;;;;;;;;;5098765;28;20024;-79
2022/08/16 01:41:28;;;;;;;15.50;8.63;;;;;;;;;;5098608;28;20032;-78
2022/08/16 01:43:54;;;;;;;15.27;8.85;;;;;;;;;;5098415;28;20023;-79
2022/08/16 01:46:29;;;;;;;14.63;9.02;;;;;;;;;;5098535;28;20028;-79
2022/08/16 01:49:00;;;;;;;10.23;8.45;;;;;;;;;;5098535;28;20048;-79
2022/08/16 01:51:26;;;;;;;11.10;8.77;;;;;;;;;;5098601;28;20039;-79
2022/08/16 01:53:53;;;;;;;14.32;9.52;;;;;;;;;;5080341;28;20512;-78
2022/08/16 01:56:19;;;;;;;12.27;9.63;;;;;;;;;;5098436;28;20052;-79
2022/08/16 01:58:45;;;;;;;13.82;9.73;;;;;;;;;;5098632;28;20024;-79
2022/08/16 02:01:12;;;;;;;15.02;9.60;;;;;;;;;;5098447;28;20030;-79
2022/08/16 02:03:38;;;;;;;13.38;9.50;;;;;;;;;;5098520;28;20107;-79
2022/08/16 02:06:05;;;;;;;15.52;10.40;;;;;;;;;;5080040;28;20016;-79
2022/08/16 02:08:31;;;;;;;16.45;10.43;;;;;;;;;;5098588;28;20017;-79
2022/08/16 02:10:57;;;;;;;13.25;10.05;;;;;;;;;;5098464;28;20068;-79
2022/08/16 02:13:23;;;;;;;14.05;9.43;;;;;;;;;;5098382;28;20031;-78
2022/08/16 02:15:49;;;;;;;14.90;9.95;;;;;;;;;;5098281;28;20374;-79
2022/08/16 02:18:15;;;;;;;12.73;9.65;;;;;;;;;;5094208;28;20110;-79
2022/08/16 02:20:47;;;;;;;18.17;9.63;;;;;;;;;;5094986;28;20043;-79
2022/08/16 02:23:13;;;;;;;12.02;9.32;;;;;;;;;;5094979;28;20056;-79
2022/08/16 02:25:39;;;;;;;13.82;9.73;;;;;;;;;;5095151;28;20027;-79
2022/08/16 02:28:05;;;;;;;13.52;10.02;;;;;;;;;;5076684;28;20106;-79
2022/08/16 02:30:32;;;;;;;12.32;9.48;;;;;;;;;;5095088;28;20453;-79
2022/08/16 02:32:59;;;;;;;15.82;9.65;;;;;;;;;;5094839;28;20028;-79
2022/08/16 02:35:25;;;;;;;15.05;10.48;;;;;;;;;;5094768;28;20043;-79
2022/08/16 02:37:52;;;;;;;14.60;9.82;;;;;;;;;;5094874;28;20509;-79
2022/08/16 02:40:19;;;;;;;18.38;10.43;;;;;;;;;;5094974;28;20062;-79
2022/08/16 02:42:46;;;;;;;14.60;9.90;;;;;;;;;;5094447;28;20020;-79
2022/08/16 02:45:12;;;;;;;16.77;9.60;;;;;;;;;;5095040;28;20070;-78
2022/08/16 02:47:38;;;;;;;14.30;9.20;;;;;;;;;;5094421;28;20062;-78
2022/08/16 02:50:05;;;;;;;14.38;10.23;;;;;;;;;;5094358;28;20016;-78
2022/08/16 02:52:31;;;;;;;18.23;10.68;;;;;;;;;;5094106;28;20028;-78
2022/08/16 02:54:57;;;;;;;12.60;9.85;;;;;;;;;;5098456;27;20361;-79
2022/08/16 02:57:23;;;;;;;18.05;10.30;;;;;;;;;;5124191;27;20031;-78
2022/08/16 02:59:49;;;;;;;13.18;9.40;;;;;;;;;;5126450;27;20106;-78
2022/08/16 03:02:16;;;;;;;13.45;9.68;;;;;;;;;;5095533;28;20499;-79
2022/08/16 03:04:42;;;;;;;16.17;9.80;;;;;;;;;;5097509;27;20106;-78
2022/08/16 03:07:09;;;;;;;16.02;9.95;;;;;;;;;;5126038;27;20130;-79
2022/08/16 03:09:35;;;;;;;17.13;10.20;;;;;;;;;;5123502;27;20429;-78
2022/08/16 03:12:02;;;;;;;16.40;9.93;;;;;;;;;;5127678;27;20019;-78
2022/08/16 03:14:28;;;;;;;14.70;10.35;;;;;;;;;;5123030;27;20055;-78
2022/08/16 03:16:54;;;;;;;14.88;10.63;;;;;;;;;;5125122;27;20038;-78
2022/08/16 03:19:20;;;;;;;15.23;10.00;;;;;;;;;;5125487;27;20027;-78
2022/08/16 03:21:46;;;;;;;17.02;11.23;;;;;;;;;;5122112;27;20792;-78
2022/08/16 03:24:13;;;;;;;15.73;11.13;;;;;;;;;;5117540;27;20031;-79
2022/08/16 03:26:39;;;;;;;17.42;11.20;;;;;;;;;;5123211;27;20526;-78
2022/08/16 03:29:05;;;;;;;18.08;11.45;;;;;;;;;;5125740;27;20020;-78
2022/08/16 03:31:31;;;;;;;14.07;10.77;;;;;;;;;;5122946;27;20018;-78
2022/08/16 03:33:57;;;;;;;16.27;10.55;;;;;;;;;;5125486;27;20015;-78
2022/08/16 03:36:24;;;;;;;13.63;11.10;;;;;;;;;;5125041;27;20055;-78
2022/08/16 03:38:50;;;;;;;14.98;11.50;;;;;;;;;;5114066;28;20023;-78
2022/08/16 03:41:16;;;;;;;16.52;12.15;;;;;;;;;;5113948;28;20027;-78
2022/08/16 03:43:42;;;;;;;17.15;11.40;;;;;;;;;;5114177;28;20028;-77
2022/08/16 03:46:09;;;;;;;20.73;11.88;;;;;;;;;;5112815;27;20024;-77
2022/08/16 03:48:36;;;;;;;16.80;11.57;;;;;;;;;;5113712;28;20465;-77
2022/08/16 03:51:03;;;;;;;18.15;12.73;;;;;;;;;;5113448;28;20427;-77
2022/08/16 03:53:30;;;;;;;16.33;12.10;;;;;;;;;;5113947;28;20027;-77
2022/08/16 03:55:56;;;;;;;19.58;11.70;;;;;;;;;;5113613;28;20040;-77
2022/08/16 03:58:22;;;;;;;21.77;11.07;;;;;;;;;;5095154;28;20057;-77
2022/08/16 04:00:48;;;;;;;17.70;11.50;;;;;;;;;;5113282;28;20034;-77
2022/08/16 04:03:14;;;;;;;19.05;12.95;;;;;;;;;;5113521;28;20019;-77
2022/08/16 04:05:42;;;;;;;19.50;11.90;;;;;;;;;;5113639;28;20015;-77
2022/08/16 04:08:08;;;;;;;19.85;12.82;;;;;;;;;;5113365;28;20072;-77
2022/08/16 04:10:34;;;;;;;19.45;12.70;;;;;;;;;;5113621;28;20023;-78
2022/08/16 04:13:00;;;;;;;17.77;13.23;;;;;;;;;;5113184;28;20027;-77
2022/08/16 04:15:28;;;;;;;19.88;13.57;;;;;;;;;;5113357;28;20361;-77
2022/08/16 04:17:54;;;;;;;30.38;15.77;;;;;;;;;;5118224;27;20533;-77
2022/08/16 04:20:21;;;;;;;24.92;14.85;;;;;;;;;;5124078;27;20027;-77
2022/08/16 04:22:47;;;;;;;23.25;14.82;;;;;;;;;;5117734;27;20106;-78
2022/08/16 04:25:13;;;;;;;23.90;15.10;;;;;;;;;;5116345;27;20027;-78
2022/08/16 04:27:39;;;;;;;23.17;16.45;;;;;;;;;;5120864;27;20358;-77
2022/08/16 04:30:13;;;;;;;26.98;15.77;;;;;;;;;;5120770;27;20019;-77
2022/08/16 04:32:40;;;;;;;23.30;15.43;;;;;;;;;;5116396;27;20393;-78
2022/08/16 04:35:08;;;;;;;23.42;15.48;;;;;;;;;;5124471;27;20023;-78
2022/08/16 04:37:34;;;;;;;20.45;14.50;;;;;;;;;;5121513;27;20031;-78
2022/08/16 04:40:00;;;;;;;19.48;14.50;;;;;;;;;;5119762;27;20024;-78
2022/08/16 04:42:26;;;;;;;23.55;15.23;;;;;;;;;;5114694;27;20055;-77
2022/08/16 04:44:52;;;;;;;25.02;16.23;;;;;;;;;;5112071;28;20026;-77
2022/08/16 04:47:18;;;;;;;22.50;15.15;;;;;;;;;;5112594;28;20020;-77
2022/08/16 04:49:44;;;;;;;21.55;14.75;;;;;;;;;;5112714;28;20037;-77
2022/08/16 04:52:11;;;;;;;23.23;15.35;;;;;;;;;;5112908;28;20173;-77
2022/08/16 04:54:39;;;;;;;26.48;15.85;;;;;;;;;;5112819;28;20123;-77
2022/08/16 04:57:05;;;;;;;24.88;15.73;;;;;;;;;;5112451;28;20039;-77
2022/08/16 04:59:31;;;;;;;24.38;15.02;;;;;;;;;;5112626;28;20023;-77
2022/08/16 05:01:57;;;;;;;23.15;15.60;;;;;;;;;;5078267;28;20078;-77
2022/08/16 05:04:23;;;;;;;21.25;15.20;;;;;;;;;;5071929;28;20520;-77
2022/08/16 05:06:50;;;;;;;23.30;16.80;;;;;;;;;;5071966;28;20020;-77
2022/08/16 05:09:17;;;;;;;28.38;16.23;;;;;;;;;;5071804;28;20051;-77
2022/08/16 05:11:44;;;;;;;31.50;15.98;;;;;;;;;;5097047;28;20020;-77
2022/08/16 05:14:10;;;;;;;26.75;16.98;;;;;;;;;;5100275;28;20122;-77
2022/08/16 05:16:36;;;;;;;26.95;18.00;;;;;;;;;;5098638;28;20031;-77
2022/08/16 05:19:03;;;;;;;28.13;18.27;;;;;;;;;;5101350;28;20485;-77
2022/08/16 05:21:30;;;;;;;31.88;18.67;;;;;;;;;;5100284;28;20035;-77
2022/08/16 05:23:56;;;;;;;27.45;17.50;;;;;;;;;;5099372;28;20048;-77
2022/08/16 05:26:24;;;;;;;28.80;17.27;;;;;;;;;;5101447;28;20048;-77
2022/08/16 05:28:50;;;;;;;32.15;19.08;;;;;;;;;;5100127;28;20025;-77
2022/08/16 05:31:16;;;;;;;32.28;19.80;;;;;;;;;;5101947;28;20074;-77
2022/08/16 05:33:43;;;;;;;31.17;17.27;;;;;;;;;;5104075;28;20478;-77
2022/08/16 05:36:09;;;;;;;34.67;18.67;;;;;;;;;;5100437;28;20358;-78
2022/08/16 05:38:35;;;;;;;35.35;20.20;;;;;;;;;;5096725;28;20028;-77
2022/08/16 05:41:02;;;;;;;34.35;18.13;;;;;;;;;;5094784;28;20035;-76
2022/08/16 05:43:28;;;;;;;25.42;18.05;;;;;;;;;;5091626;28;20039;-77
2022/08/16 05:45:55;;;;;;;35.63;19.52;;;;;;;;;;5091594;28;20020;-76
2022/08/16 05:48:21;;;;;;;26.50;18.25;;;;;;;;;;5092925;28;20047;-77
2022/08/16 05:50:47;;;;;;;35.50;21.33;;;;;;;;;;5097772;28;20085;-77
2022/08/16 05:53:13;;;;;;;33.00;21.17;;;;;;;;;;5093856;28;20106;-77
2022/08/16 05:55:39;;;;;;;29.25;19.55;;;;;;;;;;5100187;28;20521;-77
2022/08/16 05:58:05;;;;;;;30.83;20.33;;;;;;;;;;5099370;28;20039;-77
2022/08/16 06:00:31;;;;;;;30.42;20.63;;;;;;;;;;5095236;28;20024;-77
2022/08/16 06:02:57;;;;;;;32.10;21.55;;;;;;;;;;5094978;28;20024;-77
2022/08/16 06:05:24;;;;;;;27.50;20.15;;;;;;;;;;5095270;28;20027;-77
2022/08/16 06:07:51;;;;;;;28.90;19.88;;;;;;;;;;5095175;28;20126;-77
2022/08/16 06:10:17;;;;;;;31.98;20.27;;;;;;;;;;5095169;28;20024;-77
2022/08/16 06:12:43;;;;;;;34.30;21.73;;;;;;;;;;5095095;28;20058;-77
2022/08/16 06:15:12;;;;;;;27.90;18.70;;;;;;;;;;5094612;28;20035;-76
2022/08/16 06:17:38;;;;;;;26.17;20.05;;;;;;;;;;5094087;28;20175;-77
2022/08/16 06:20:05;;;;;;;38.53;22.58;;;;;;;;;;5089638;28;20102;-77
2022/08/16 06:22:31;;;;;;;28.50;19.58;;;;;;;;;;5084502;28;20107;-77
2022/08/16 06:24:57;;;;;;;32.15;21.88;;;;;;;;;;5092547;28;20373;-77
2022/08/16 06:27:23;;;;;;;36.60;21.85;;;;;;;;;;5089660;28;20024;-77
2022/08/16 06:29:50;;;;;;;32.80;21.38;;;;;;;;;;5087159;28;20097;-77
2022/08/16 06:32:16;;;;;;;36.03;22.15;;;;;;;;;;5086216;28;20103;-77
2022/08/16 06:34:42;;;;;;;30.55;21.08;;;;;;;;;;5090897;28;20231;-76
2022/08/16 06:37:08;;;;;;;33.42;22.23;;;;;;;;;;5092322;28;20462;-77
2022/08/16 06:39:34;;;;;;;31.20;21.70;;;;;;;;;;5094413;28;20024;-77
2022/08/16 06:42:00;;;;;;;30.73;21.25;;;;;;;;;;5094275;28;20020;-76
2022/08/16 06:44:26;;;;;;;29.65;20.10;;;;;;;;;;5094406;28;20469;-76
2022/08/16 06:46:53;;;;;;;34.13;22.05;;;;;;;;;;5094494;28;20051;-76
2022/08/16 06:49:19;;;;;;;33.33;22.13;;;;;;;;;;5094423;28;20047;-77
2022/08/16 06:51:45;;;;;;;33.63;21.48;;;;;;;;;;5076452;28;20111;-75
2022/08/16 06:54:12;;;;;;;31.08;21.05;;;;;;;;;;5094161;28;20020;-77
2022/08/16 06:56:38;;;;;;;30.27;19.83;;;;;;;;;;5094883;28;20063;-77
2022/08/16 06:59:05;;;;;;;33.92;21.08;;;;;;;;;;5093644;28;20060;-77
2022/08/16 07:01:31;;;;;;;32.33;21.25;;;;;;;;;;5093623;28;20173;-76
2022/08/16 07:03:57;;;;;;;28.42;20.10;;;;;;;;;;5092719;28;20025;-75
2022/08/16 07:06:24;;;;;;;30.50;20.85;;;;;;;;;;5092790;28;20020;-75
2022/08/16 07:08:50;;;;;;;31.70;21.73;;;;;;;;;;5093768;28;20553;-76
2022/08/16 07:11:19;;;;;;;27.73;20.40;;;;;;;;;;5094532;28;20035;-76
2022/08/16 07:13:47;;;;;;;32.92;21.13;;;;;;;;;;5094282;28;20462;-77
2022/08/16 07:16:15;;;;;;;32.13;21.35;;;;;;;;;;5094144;28;20535;-77
2022/08/16 07:18:42;;;;;;;30.40;21.65;;;;;;;;;;5093888;28;20032;-76
2022/08/16 07:21:08;;;;;;;31.25;21.25;;;;;;;;;;5094260;28;20406;-76
2022/08/16 07:23:36;;;;;;;38.53;21.42;;;;;;;;;;5093534;28;20040;-76
2022/08/16 07:26:03;;;;;;;31.77;19.85;;;;;;;;;;5075074;28;20039;-77
2022/08/16 07:28:29;;;;;;;36.72;20.23;;;;;;;;;;5091743;28;20351;-76
2022/08/16 07:30:56;;;;;;;32.88;18.75;;;;;;;;;;5092231;28;20058;-77
2022/08/16 07:33:22;;;;;;;27.40;18.50;;;;;;;;;;5093739;28;20024;-77
2022/08/16 07:35:48;;;;;;;35.92;18.50;;;;;;;;;;5093061;28;20099;-77
2022/08/16 07:38:14;;;;;;;29.38;17.63;;;;;;;;;;5093471;28;20485;-76
2022/08/16 07:40:40;;;;;;;24.20;16.50;;;;;;;;;;5092988;28;20050;-77
2022/08/16 07:43:06;;;;;;;28.90;16.95;;;;;;;;;;5092858;28;20030;-77
2022/08/16 07:45:32;;;;;;;26.65;17.50;;;;;;;;;;5092512;28;20044;-77
2022/08/16 07:47:58;;;;;;;23.75;17.60;;;;;;;;;;5092747;28;20367;-77
2022/08/16 07:50:26;;;;;;;24.73;17.05;;;;;;;;;;5092676;28;20030;-77
2022/08/16 07:52:52;;;;;;;23.38;15.55;;;;;;;;;;5092807;28;20026;-77
2022/08/16 07:55:18;;;;;;;24.15;16.15;;;;;;;;;;5096886;28;20040;-76
2022/08/16 07:57:45;;;;;;;22.55;15.38;;;;;;;;;;5113547;28;20101;-77
2022/08/16 08:00:11;;;;;;;24.42;15.55;;;;;;;;;;5113601;28;20081;-77
2022/08/16 08:02:38;;;;;;;23.10;15.15;;;;;;;;;;5113360;28;20123;-77
2022/08/16 08:05:04;;;;;;;20.88;15.90;;;;;;;;;;5113334;28;20024;-77
2022/08/16 08:07:30;;;;;;;22.25;15.52;;;;;;;;;;5113541;28;20111;-77
2022/08/16 08:09:57;;;;;;;24.98;15.35;;;;;;;;;;5113500;28;20016;-77
2022/08/16 08:12:23;;;;;;;23.20;16.17;;;;;;;;;;5113355;28;20519;-77
2022/08/16 08:14:49;;;;;;;25.08;15.75;;;;;;;;;;5112639;28;20028;-77
2022/08/16 08:17:16;;;;;;;23.88;15.95;;;;;;;;;;5113420;28;20039;-77
2022/08/16 08:19:43;;;;;;;19.50;14.10;;;;;;;;;;5113228;28;20035;-77
2022/08/16 08:22:09;;;;;;;21.17;15.52;;;;;;;;;;5113413;28;20377;-77
2022/08/16 08:24:37;;;;;;;24.85;15.25;;;;;;;;;;5113040;28;20419;-77
2022/08/16 08:27:04;;;;;;;22.15;15.93;;;;;;;;;;5113177;28;20019;-77
2022/08/16 08:29:30;;;;;;;32.05;16.58;;;;;;;;;;5112941;28;20517;-77
2022/08/16 08:31:56;;;;;;;25.23;15.55;;;;;;;;;;5113263;28;20373;-77
2022/08/16 08:34:22;;;;;;;26.60;15.05;;;;;;;;;;5113110;28;20089;-77
2022/08/16 08:36:49;;;;;;;27.38;15.50;;;;;;;;;;5112085;28;20019;-77
2022/08/16 08:39:15;;;;;;;23.17;13.98;;;;;;;;;;5097627;27;20078;-77
2022/08/16 08:41:42;;;;;;;21.15;13.93;;;;;;;;;;5092794;28;20024;-77
2022/08/16 08:44:09;;;;;;;24.63;15.30;;;;;;;;;;5092234;28;20028;-80
2022/08/16 08:46:35;;;;;;;24.52;14.95;;;;;;;;;;5097934;28;20077;-80
2022/08/16 08:49:01;;;;;;;22.33;15.77;;;;;;;;;;5113263;28;20020;-80
2022/08/16 08:51:27;;;;;;;24.15;14.65;;;;;;;;;;5113247;28;20032;-80
2022/08/16 08:53:53;;;;;;;22.40;14.88;;;;;;;;;;5113797;28;20023;-80
2022/08/16 08:56:20;;;;;;;20.30;14.57;;;;;;;;;;5113307;28;20052;-80
2022/08/16 08:58:46;;;;;;;24.60;16.02;;;;;;;;;;5113386;28;20030;-80
2022/08/16 09:01:12;;;;;;;26.45;16.00;;;;;;;;;;5102578;28;20034;-80
2022/08/16 09:03:38;;;;;;;21.92;15.10;;;;;;;;;;5093154;28;20028;-80
2022/08/16 09:06:06;;;;;;;22.40;14.20;;;;;;;;;;5093723;28;20081;-80
2022/08/16 09:08:33;;;;;;;23.92;15.90;;;;;;;;;;5093421;28;20016;-80
2022/08/16 09:10:59;;;;;;;24.63;15.40;;;;;;;;;;5093800;28;20023;-80
2022/08/16 09:13:25;;;;;;;22.80;16.02;;;;;;;;;;5093453;28;20020;-80
2022/08/16 09:15:54;;;;;;;20.45;13.50;;;;;;;;;;5093497;28;20032;-79
2022/08/16 09:18:21;;;;;;;26.48;16.35;;;;;;;;;;5093321;28;20107;-80
2022/08/16 09:20:47;;;;;;;22.58;14.18;;;;;;;;;;5093313;28;20020;-80
2022/08/16 09:23:13;;;;;;;20.67;14.43;;;;;;;;;;5093333;28;20031;-80
2022/08/16 09:25:40;;;;;;;18.95;12.75;;;;;;;;;;5093305;28;20044;-80
2022/08/16 09:28:06;;;;;;;17.60;11.90;;;;;;;;;;5097632;28;20020;-80
2022/08/16 09:30:35;;;;;;;18.67;11.32;;;;;;;;;;5097214;28;20348;-80
2022/08/16 09:33:02;;;;;;;15.43;10.15;;;;;;;;;;5097189;28;20028;-80
2022/08/16 09:35:28;;;;;;;19.10;12.82;;;;;;;;;;5097172;28;20061;-80
2022/08/16 09:37:55;;;;;;;20.63;14.38;;;;;;;;;;5097323;28;20032;-81
2022/08/16 09:40:22;;;;;;;19.75;12.80;;;;;;;;;;5097311;28;20024;-81
2022/08/16 09:42:48;;;;;;;16.75;11.95;;;;;;;;;;5096907;28;20031;-80
2022/08/16 09:45:15;;;;;;;17.48;11.60;;;;;;;;;;5096401;28;20021;-80
2022/08/16 09:47:41;;;;;;;16.42;11.18;;;;;;;;;;5096465;28;20020;-80
2022/08/16 09:50:09;;;;;;;20.55;12.45;;;;;;;;;;5096605;28;20024;-80
2022/08/16 09:52:36;;;;;;;17.63;11.48;;;;;;;;;;5095829;28;20070;-80
2022/08/16 09:55:04;;;;;;;19.77;11.32;;;;;;;;;;5096482;28;20027;-80
2022/08/16 09:57:30;;;;;;;24.10;13.98;;;;;;;;;;5097112;28;20434;-80
2022/08/16 09:59:56;;;;;;;18.25;11.70;;;;;;;;;;5096723;28;20025;-80
2022/08/16 10:02:24;;;;;;;19.30;13.52;;;;;;;;;;5096296;28;20472;-80
2022/08/16 10:04:50;;;;;;;20.48;12.50;;;;;;;;;;5096645;28;20054;-80
2022/08/16 10:07:17;;;;;;;23.65;13.73;;;;;;;;;;5096579;28;20024;-80
2022/08/16 10:09:46;;;;;;;14.32;11.25;;;;;;;;;;5096615;28;20464;-80
2022/08/16 10:14:57;;;;;;;19.52;12.70;;;;;;;;;;5096602;28;20077;-80
2022/08/16 10:17:23;;;;;;;18.85;12.77;;;;;;;;;;5077986;28;20027;-80
2022/08/16 10:19:51;;;;;;;21.17;12.63;;;;;;;;;;5096119;28;20116;-80
2022/08/16 10:22:18;;;;;;;16.90;11.38;;;;;;;;;;5096228;28;20108;-80
2022/08/16 10:24:44;;;;;;;23.45;12.73;;;;;;;;;;5109567;28;20048;-80
2022/08/16 10:27:10;;;;;;;20.95;12.77;;;;;;;;;;5116686;28;20024;-81
2022/08/16 10:29:36;;;;;;;23.98;12.38;;;;;;;;;;5116225;28;20381;-80
2022/08/16 10:32:03;;;;;;;16.90;12.02;;;;;;;;;;5116974;28;20088;-80
2022/08/16 10:34:29;;;;;;;20.55;11.80;;;;;;;;;;5116598;28;20035;-80
2022/08/16 10:36:55;;;;;;;16.45;10.50;;;;;;;;;;5116360;28;20449;-80
2022/08/16 10:39:22;;;;;;;17.08;11.90;;;;;;;;;;5115382;28;20038;-80
2022/08/16 10:41:48;;;;;;;18.52;14.05;;;;;;;;;;5116370;28;20027;-80
2022/08/16 10:44:14;;;;;;;22.48;13.98;;;;;;;;;;5116328;28;20073;-80
2022/08/16 10:46:40;;;;;;;17.77;11.38;;;;;;;;;;5115979;28;20494;-81
2022/08/16 10:49:07;;;;;;;20.15;13.50;;;;;;;;;;5115873;28;20023;-81
2022/08/16 10:51:33;;;;;;;19.15;12.40;;;;;;;;;;5115987;28;20032;-80
2022/08/16 10:53:59;;;;;;;19.92;14.40;;;;;;;;;;5116055;28;20027;-81
2022/08/16 10:56:25;;;;;;;21.58;12.43;;;;;;;;;;5097499;28;20131;-80
2022/08/16 10:58:52;;;;;;;26.90;14.48;;;;;;;;;;5097516;28;20506;-80
2022/08/16 11:01:18;;;;;;;18.83;12.15;;;;;;;;;;5104054;28;20034;-80
2022/08/16 11:03:44;;;;;;;21.83;12.60;;;;;;;;;;5096065;28;20107;-80
2022/08/16 11:06:10;;;;;;;20.20;12.57;;;;;;;;;;5095381;28;20024;-80
2022/08/16 11:08:36;;;;;;;16.85;11.40;;;;;;;;;;5095770;28;20070;-80
2022/08/16 11:11:04;;;;;;;21.77;12.60;;;;;;;;;;5095561;28;20348;-80
2022/08/16 11:13:30;;;;;;;19.70;13.88;;;;;;;;;;5095452;28;20024;-81
2022/08/16 11:15:57;;;;;;;17.08;12.80;;;;;;;;;;5095011;28;20027;-80
2022/08/16 11:18:24;;;;;;;20.08;12.20;;;;;;;;;;5095147;28;20026;-81
2022/08/16 11:20:50;;;;;;;20.67;11.50;;;;;;;;;;5095566;28;20024;-80
2022/08/16 11:23:16;;;;;;;20.92;12.77;;;;;;;;;;5094997;28;20028;-81
2022/08/16 11:25:42;;;;;;;18.15;12.35;;;;;;;;;;5095167;28;20024;-81
2022/08/16 11:28:09;;;;;;;23.10;11.27;;;;;;;;;;5095426;28;20535;-81
2022/08/16 11:30:36;;;;;;;16.90;10.05;;;;;;;;;;5094902;28;20024;-81
2022/08/16 11:33:02;;;;;;;22.25;10.93;;;;;;;;;;5095359;28;20482;-81
2022/08/16 11:35:29;;;;;;;17.90;10.98;;;;;;;;;;5094810;28;20039;-81
2022/08/16 11:37:57;;;;;;;21.42;11.65;;;;;;;;;;5094853;28;20532;-81
2022/08/16 11:40:25;;;;;;;13.55;8.50;;;;;;;;;;5104064;28;20028;-80
2022/08/16 11:42:51;;;;;;;19.17;11.27;;;;;;;;;;5096578;28;20023;-81
2022/08/16 11:45:17;;;;;;;16.35;9.70;;;;;;;;;;5114722;28;20039;-80
2022/08/16 11:47:44;;;;;;;13.85;8.55;;;;;;;;;;5114861;28;20103;-80
2022/08/16 11:50:10;;;;;;;19.00;9.63;;;;;;;;;;5114515;28;20054;-81
2022/08/16 11:52:37;;;;;;;15.95;9.18;;;;;;;;;;5113781;28;20169;-81
2022/08/16 11:55:07;;;;;;;15.05;10.60;;;;;;;;;;5113839;28;20027;-81
2022/08/16 11:57:33;;;;;;;19.40;9.98;;;;;;;;;;5095463;28;20044;-81
2022/08/16 12:00:00;;;;;;;17.05;10.90;;;;;;;;;;5114121;28;20107;-81
2022/08/16 12:02:26;;;;;;;13.57;9.85;;;;;;;;;;5114327;28;20035;-81
2022/08/16 12:04:52;;;;;;;15.32;8.07;;;;;;;;;;5114262;28;20149;-80
2022/08/16 12:07:19;;;;;;;14.30;7.53;;;;;;;;;;5114397;28;20024;-81
2022/08/16 12:09:45;;;;;;;12.35;7.57;;;;;;;;;;5115081;28;20035;-81
2022/08/16 12:12:11;;;;;;;11.02;7.78;;;;;;;;;;5114384;28;20024;-80
2022/08/16 12:14:37;;;;;;;15.90;8.00;;;;;;;;;;5114118;28;20561;-81
2022/08/16 12:17:04;;;;;;;13.40;8.18;;;;;;;;;;5114115;28;20039;-81
2022/08/16 12:19:31;;;;;;;14.98;8.82;;;;;;;;;;5114517;28;20024;-81
2022/08/16 12:21:58;;;;;;;17.48;8.80;;;;;;;;;;5113298;27;20020;-81
2022/08/16 12:24:24;;;;;;;12.93;8.25;;;;;;;;;;5111190;28;20024;-82
2022/08/16 12:26:50;;;;;;;14.32;9.40;;;;;;;;;;5093952;28;20024;-82
2022/08/16 12:29:16;;;;;;;10.63;7.93;;;;;;;;;;5109829;28;20538;-82
2022/08/16 12:31:42;;;;;;;9.88;7.47;;;;;;;;;;5114546;28;20634;-82
2022/08/16 12:34:09;;;;;;;14.02;6.82;;;;;;;;;;5113578;28;20076;-82
2022/08/16 12:36:35;;;;;;;9.23;6.20;;;;;;;;;;5095211;28;20054;-81
2022/08/16 12:39:02;;;;;;;10.02;6.95;;;;;;;;;;5114170;28;20031;-81
2022/08/16 12:41:28;;;;;;;11.30;6.22;;;;;;;;;;5113887;28;20024;-81
2022/08/16 12:43:54;;;;;;;12.32;7.10;;;;;;;;;;5113591;28;20032;-81
2022/08/16 12:46:21;;;;;;;11.18;6.57;;;;;;;;;;5113431;28;20020;-81
2022/08/16 12:48:59;;;;;;;13.93;7.72;;;;;;;;;;5107728;28;20020;-82
2022/08/16 12:51:31;;;;;;;9.65;6.55;;;;;;;;;;5114547;28;20034;-80
2022/08/16 12:53:58;;;;;;;13.25;7.35;;;;;;;;;;5114584;28;20092;-79
2022/08/16 12:56:26;;;;;;;14.63;7.80;;;;;;;;;;5114242;28;20120;-80
2022/08/16 12:58:53;;;;;;;9.40;5.85;;;;;;;;;;5114112;28;20076;-81
2022/08/16 13:01:21;;;;;;;8.73;4.82;;;;;;;;;;5095534;28;20035;-80
2022/08/16 13:03:47;;;;;;;11.85;4.40;;;;;;;;;;5120598;27;20072;-80
2022/08/16 13:06:14;;;;;;;8.00;4.90;;;;;;;;;;5115518;28;20042;-80
2022/08/16 13:08:43;;;;;;;7.93;5.47;;;;;;;;;;5116006;28;20388;-80
2022/08/16 13:11:09;;;;;;;9.10;5.50;;;;;;;;;;5123945;28;20015;-80
2022/08/16 13:13:35;;;;;;;8.10;4.60;;;;;;;;;;5125663;28;20015;-82
2022/08/16 13:16:03;;;;;;;8.77;4.68;;;;;;;;;;5133433;28;20033;-81
2022/08/16 13:18:30;;;;;;;8.20;4.80;;;;;;;;;;5125614;28;20069;-80
2022/08/16 13:20:57;;;;;;;12.05;5.00;;;;;;;;;;5123160;28;20472;-80
2022/08/16 13:23:24;;;;;;;9.80;5.28;;;;;;;;;;5126767;28;20035;-80
2022/08/16 13:25:50;;;;;;;10.15;5.50;;;;;;;;;;5113423;28;20016;-80
2022/08/16 13:28:17;;;;;;;9.27;6.05;;;;;;;;;;5113538;28;20035;-80
2022/08/16 13:30:46;;;;;;;13.35;8.90;;;;;;;;;;5113340;28;20361;-80
2022/08/16 13:33:15;;;;;;;14.50;9.32;;;;;;;;;;5116365;28;20458;-80
2022/08/16 13:35:45;;;;;;;9.73;7.40;;;;;;;;;;5113867;28;20020;-80
2022/08/16 13:38:11;;;;;;;11.70;8.40;;;;;;;;;;5113381;28;20106;-80
2022/08/16 13:40:37;;;;;;;9.38;7.35;;;;;;;;;;5121337;28;20023;-80
2022/08/16 13:43:03;;;;;;;15.77;8.40;;;;;;;;;;5133157;28;20042;-80
2022/08/16 13:45:30;;;;;;;16.98;8.48;;;;;;;;;;5121564;28;20095;-80
2022/08/16 13:47:55;;;;;;;10.00;6.38;;;;;;;;;;5124631;28;20468;-80
2022/08/16 13:50:22;;;;;;;10.88;7.28;;;;;;;;;;5118469;28;20024;-80
2022/08/16 13:52:48;;;;;;;17.92;9.88;;;;;;;;;;5126334;28;20183;-80
2022/08/16 13:55:15;;;;;;;11.65;8.38;;;;;;;;;;5115850;28;20024;-79
2022/08/16 13:57:42;;;;;;;14.10;8.70;;;;;;;;;;5094093;28;20043;-79
2022/08/16 14:00:09;;;;;;;12.80;9.25;;;;;;;;;;5113065;28;20019;-78
2022/08/16 14:02:35;;;;;;;17.45;9.40;;;;;;;;;;5113076;28;20016;-80
2022/08/16 14:05:02;;;;;;;15.25;11.15;;;;;;;;;;5094752;28;20030;-80
2022/08/16 14:07:29;;;;;;;13.20;10.15;;;;;;;;;;5113211;28;20411;-80
2022/08/16 14:09:55;;;;;;;17.42;9.05;;;;;;;;;;5113826;28;20460;-79
2022/08/16 14:12:23;;;;;;;13.52;9.38;;;;;;;;;;5094667;28;20123;-80
2022/08/16 14:14:49;;;;;;;14.35;9.85;;;;;;;;;;5124112;27;20454;-80
2022/08/16 14:17:16;;;;;;;18.92;11.75;;;;;;;;;;5119250;27;20027;-82
2022/08/16 14:19:42;;;;;;;15.25;10.13;;;;;;;;;;5127573;27;20546;-81